sensor_id;sensor_type;location;lat;lon;timestamp;P1;durP1;ratioP1;P2;durP2;ratioP2
4021;SDS011;2025;48.260;16.432;2023-03-05T00:00:07;17.73;;;5.97;;
4021;SDS011;2025;48.260;16.432;2023-03-05T00:02:35;13.95;;;6.38;;
4021;SDS011;2025;48.260;16.432;2023-03-05T00:05:01;20.08;;;6.78;;
4021;SDS011;2025;48.260;16.432;2023-03-05T00:07:29;17.15;;;8.30;;
4021;SDS011;2025;48.260;16.432;2023-03-05T00:09:57;16.90;;;7.05;;
4021;SDS011;2025;48.260;16.432;2023-03-05T00:12:24;18.10;;;8.55;;
4021;SDS011;2025;48.260;16.432;2023-03-05T00:14:53;16.75;;;6.90;;
4021;SDS011;2025;48.260;16.432;2023-03-05T00:17:20;17.15;;;5.82;;
4021;SDS011;2025;48.260;16.432;2023-03-05T00:19:47;19.25;;;8.07;;
4021;SDS011;2025;48.260;16.432;2023-03-05T00:22:14;19.60;;;6.82;;
4021;SDS011;2025;48.260;16.432;2023-03-05T00:24:41;16.27;;;7.07;;
4021;SDS011;2025;48.260;16.432;2023-03-05T00:27:08;15.95;;;7.95;;
4021;SDS011;2025;48.260;16.432;2023-03-05T00:29:35;15.68;;;6.50;;
4021;SDS011;2025;48.260;16.432;2023-03-05T00:32:03;17.65;;;7.03;;
4021;SDS011;2025;48.260;16.432;2023-03-05T00:34:30;15.05;;;6.55;;
4021;SDS011;2025;48.260;16.432;2023-03-05T00:36:57;17.90;;;7.00;;
4021;SDS011;2025;48.260;16.432;2023-03-05T00:39:24;17.20;;;7.25;;
4021;SDS011;2025;48.260;16.432;2023-03-05T00:44:17;16.80;;;6.75;;
4021;SDS011;2025;48.260;16.432;2023-03-05T00:46:45;19.10;;;7.03;;
4021;SDS011;2025;48.260;16.432;2023-03-05T00:49:13;19.33;;;7.25;;
4021;SDS011;2025;48.260;16.432;2023-03-05T00:51:40;18.70;;;5.97;;
4021;SDS011;2025;48.260;16.432;2023-03-05T00:54:08;14.60;;;5.95;;
4021;SDS011;2025;48.260;16.432;2023-03-05T00:56:34;19.65;;;7.03;;
4021;SDS011;2025;48.260;16.432;2023-03-05T00:59:02;17.60;;;5.85;;
4021;SDS011;2025;48.260;16.432;2023-03-05T01:01:28;15.77;;;7.15;;
4021;SDS011;2025;48.260;16.432;2023-03-05T01:03:55;16.23;;;6.32;;
4021;SDS011;2025;48.260;16.432;2023-03-05T01:06:25;16.08;;;6.57;;
4021;SDS011;2025;48.260;16.432;2023-03-05T01:08:53;16.83;;;7.45;;
4021;SDS011;2025;48.260;16.432;2023-03-05T01:11:21;14.93;;;6.30;;
4021;SDS011;2025;48.260;16.432;2023-03-05T01:13:48;15.80;;;4.97;;
4021;SDS011;2025;48.260;16.432;2023-03-05T01:16:15;16.27;;;6.75;;
4021;SDS011;2025;48.260;16.432;2023-03-05T01:18:41;16.55;;;6.63;;
4021;SDS011;2025;48.260;16.432;2023-03-05T01:21:08;19.58;;;6.82;;
4021;SDS011;2025;48.260;16.432;2023-03-05T01:23:37;17.52;;;5.78;;
4021;SDS011;2025;48.260;16.432;2023-03-05T01:26:04;17.63;;;7.00;;
4021;SDS011;2025;48.260;16.432;2023-03-05T01:28:32;14.20;;;6.15;;
4021;SDS011;2025;48.260;16.432;2023-03-05T01:30:59;17.75;;;7.22;;
4021;SDS011;2025;48.260;16.432;2023-03-05T01:33:27;18.33;;;7.18;;
4021;SDS011;2025;48.260;16.432;2023-03-05T01:35:54;14.95;;;7.55;;
4021;SDS011;2025;48.260;16.432;2023-03-05T01:38:21;17.23;;;7.75;;
4021;SDS011;2025;48.260;16.432;2023-03-05T01:40:50;16.67;;;6.35;;
4021;SDS011;2025;48.260;16.432;2023-03-05T01:43:21;16.63;;;6.75;;
4021;SDS011;2025;48.260;16.432;2023-03-05T01:48:57;14.00;;;5.75;;
4021;SDS011;2025;48.260;16.432;2023-03-05T01:51:28;18.50;;;6.35;;
4021;SDS011;2025;48.260;16.432;2023-03-05T01:53:58;16.17;;;5.85;;
4021;SDS011;2025;48.260;16.432;2023-03-05T01:56:28;17.10;;;6.70;;
4021;SDS011;2025;48.260;16.432;2023-03-05T01:58:56;19.50;;;7.20;;
4021;SDS011;2025;48.260;16.432;2023-03-05T02:01:28;16.15;;;6.82;;
4021;SDS011;2025;48.260;16.432;2023-03-05T02:03:57;14.55;;;6.03;;
4021;SDS011;2025;48.260;16.432;2023-03-05T02:06:25;11.30;;;4.90;;
4021;SDS011;2025;48.260;16.432;2023-03-05T02:08:52;16.55;;;6.30;;
4021;SDS011;2025;48.260;16.432;2023-03-05T02:11:19;15.52;;;6.15;;
4021;SDS011;2025;48.260;16.432;2023-03-05T02:13:48;16.83;;;7.20;;
4021;SDS011;2025;48.260;16.432;2023-03-05T02:16:15;21.70;;;8.65;;
4021;SDS011;2025;48.260;16.432;2023-03-05T02:18:42;13.00;;;4.78;;
4021;SDS011;2025;48.260;16.432;2023-03-05T02:21:11;18.52;;;8.13;;
4021;SDS011;2025;48.260;16.432;2023-03-05T02:23:38;19.15;;;7.97;;
4021;SDS011;2025;48.260;16.432;2023-03-05T02:26:06;16.77;;;6.80;;
4021;SDS011;2025;48.260;16.432;2023-03-05T02:28:35;11.68;;;6.13;;
4021;SDS011;2025;48.260;16.432;2023-03-05T02:31:08;15.18;;;5.90;;
4021;SDS011;2025;48.260;16.432;2023-03-05T02:33:36;20.55;;;7.45;;
4021;SDS011;2025;48.260;16.432;2023-03-05T02:36:03;17.05;;;6.88;;
4021;SDS011;2025;48.260;16.432;2023-03-05T02:38:32;17.40;;;6.93;;
4021;SDS011;2025;48.260;16.432;2023-03-05T02:40:59;14.30;;;6.53;;
4021;SDS011;2025;48.260;16.432;2023-03-05T02:43:26;18.45;;;6.95;;
4021;SDS011;2025;48.260;16.432;2023-03-05T02:45:53;16.88;;;6.82;;
4021;SDS011;2025;48.260;16.432;2023-03-05T02:48:20;15.52;;;6.25;;
4021;SDS011;2025;48.260;16.432;2023-03-05T02:50:47;17.15;;;6.97;;
4021;SDS011;2025;48.260;16.432;2023-03-05T02:53:14;18.88;;;7.03;;
4021;SDS011;2025;48.260;16.432;2023-03-05T02:55:46;22.48;;;9.20;;
4021;SDS011;2025;48.260;16.432;2023-03-05T02:58:15;18.40;;;7.13;;
4021;SDS011;2025;48.260;16.432;2023-03-05T03:00:42;19.25;;;7.43;;
4021;SDS011;2025;48.260;16.432;2023-03-05T03:03:10;16.30;;;7.30;;
4021;SDS011;2025;48.260;16.432;2023-03-05T03:05:38;16.77;;;7.72;;
4021;SDS011;2025;48.260;16.432;2023-03-05T03:08:05;17.88;;;8.00;;
4021;SDS011;2025;48.260;16.432;2023-03-05T03:10:32;15.75;;;5.50;;
4021;SDS011;2025;48.260;16.432;2023-03-05T03:13:01;16.88;;;7.20;;
4021;SDS011;2025;48.260;16.432;2023-03-05T03:15:28;20.42;;;8.55;;
4021;SDS011;2025;48.260;16.432;2023-03-05T03:17:55;19.08;;;6.80;;
4021;SDS011;2025;48.260;16.432;2023-03-05T03:20:22;17.30;;;6.13;;
4021;SDS011;2025;48.260;16.432;2023-03-05T03:22:49;18.50;;;7.22;;
4021;SDS011;2025;48.260;16.432;2023-03-05T03:25:17;17.48;;;7.63;;
4021;SDS011;2025;48.260;16.432;2023-03-05T03:27:47;17.10;;;7.78;;
4021;SDS011;2025;48.260;16.432;2023-03-05T03:30:15;20.95;;;8.77;;
4021;SDS011;2025;48.260;16.432;2023-03-05T03:32:42;18.65;;;8.35;;
4021;SDS011;2025;48.260;16.432;2023-03-05T03:35:09;18.95;;;7.10;;
4021;SDS011;2025;48.260;16.432;2023-03-05T03:37:37;15.98;;;6.75;;
4021;SDS011;2025;48.260;16.432;2023-03-05T03:40:05;21.23;;;8.90;;
4021;SDS011;2025;48.260;16.432;2023-03-05T03:42:33;17.52;;;7.28;;
4021;SDS011;2025;48.260;16.432;2023-03-05T03:45:00;16.50;;;6.55;;
4021;SDS011;2025;48.260;16.432;2023-03-05T03:47:29;17.35;;;6.60;;
4021;SDS011;2025;48.260;16.432;2023-03-05T03:49:56;16.05;;;7.63;;
4021;SDS011;2025;48.260;16.432;2023-03-05T03:52:24;16.15;;;7.47;;
4021;SDS011;2025;48.260;16.432;2023-03-05T03:54:51;19.35;;;6.90;;
4021;SDS011;2025;48.260;16.432;2023-03-05T03:57:25;16.48;;;6.78;;
4021;SDS011;2025;48.260;16.432;2023-03-05T03:59:52;18.80;;;8.02;;
4021;SDS011;2025;48.260;16.432;2023-03-05T04:02:19;19.02;;;7.18;;
4021;SDS011;2025;48.260;16.432;2023-03-05T04:04:48;15.13;;;7.03;;
4021;SDS011;2025;48.260;16.432;2023-03-05T04:07:15;18.83;;;8.50;;
4021;SDS011;2025;48.260;16.432;2023-03-05T04:09:42;17.08;;;7.45;;
4021;SDS011;2025;48.260;16.432;2023-03-05T04:12:09;16.02;;;5.63;;
4021;SDS011;2025;48.260;16.432;2023-03-05T04:14:36;16.77;;;7.63;;
4021;SDS011;2025;48.260;16.432;2023-03-05T04:17:03;15.32;;;6.88;;
4021;SDS011;2025;48.260;16.432;2023-03-05T04:19:30;16.20;;;6.75;;
4021;SDS011;2025;48.260;16.432;2023-03-05T04:21:58;17.67;;;7.45;;
4021;SDS011;2025;48.260;16.432;2023-03-05T04:24:25;17.23;;;6.93;;
4021;SDS011;2025;48.260;16.432;2023-03-05T04:26:52;16.05;;;5.45;;
4021;SDS011;2025;48.260;16.432;2023-03-05T04:29:19;20.02;;;6.93;;
4021;SDS011;2025;48.260;16.432;2023-03-05T04:31:46;19.63;;;8.18;;
4021;SDS011;2025;48.260;16.432;2023-03-05T04:34:13;17.33;;;7.70;;
4021;SDS011;2025;48.260;16.432;2023-03-05T04:36:40;15.07;;;7.20;;
4021;SDS011;2025;48.260;16.432;2023-03-05T04:39:08;16.83;;;6.90;;
4021;SDS011;2025;48.260;16.432;2023-03-05T04:41:35;18.33;;;7.20;;
4021;SDS011;2025;48.260;16.432;2023-03-05T04:44:02;15.70;;;6.78;;
4021;SDS011;2025;48.260;16.432;2023-03-05T04:46:29;18.20;;;7.03;;
4021;SDS011;2025;48.260;16.432;2023-03-05T04:48:56;14.90;;;6.60;;
4021;SDS011;2025;48.260;16.432;2023-03-05T04:51:24;17.45;;;7.53;;
4021;SDS011;2025;48.260;16.432;2023-03-05T04:53:51;16.23;;;6.40;;
4021;SDS011;2025;48.260;16.432;2023-03-05T04:56:19;17.48;;;6.60;;
4021;SDS011;2025;48.260;16.432;2023-03-05T04:58:46;13.15;;;5.15;;
4021;SDS011;2025;48.260;16.432;2023-03-05T05:01:13;16.20;;;6.35;;
4021;SDS011;2025;48.260;16.432;2023-03-05T05:03:40;15.65;;;5.97;;
4021;SDS011;2025;48.260;16.432;2023-03-05T05:06:07;16.10;;;7.15;;
4021;SDS011;2025;48.260;16.432;2023-03-05T05:08:34;18.25;;;6.97;;
4021;SDS011;2025;48.260;16.432;2023-03-05T05:11:02;18.55;;;6.25;;
4021;SDS011;2025;48.260;16.432;2023-03-05T05:13:31;19.77;;;7.38;;
4021;SDS011;2025;48.260;16.432;2023-03-05T05:15:59;18.60;;;7.63;;
4021;SDS011;2025;48.260;16.432;2023-03-05T05:18:26;16.77;;;6.05;;
4021;SDS011;2025;48.260;16.432;2023-03-05T05:20:53;18.98;;;8.43;;
4021;SDS011;2025;48.260;16.432;2023-03-05T05:23:20;17.73;;;7.75;;
4021;SDS011;2025;48.260;16.432;2023-03-05T05:25:54;17.25;;;7.35;;
4021;SDS011;2025;48.260;16.432;2023-03-05T05:28:22;23.13;;;9.68;;
4021;SDS011;2025;48.260;16.432;2023-03-05T05:30:51;21.70;;;7.70;;
4021;SDS011;2025;48.260;16.432;2023-03-05T05:33:18;14.93;;;6.38;;
4021;SDS011;2025;48.260;16.432;2023-03-05T05:35:46;17.75;;;8.43;;
4021;SDS011;2025;48.260;16.432;2023-03-05T05:38:13;15.52;;;7.03;;
4021;SDS011;2025;48.260;16.432;2023-03-05T05:40:40;18.40;;;8.27;;
4021;SDS011;2025;48.260;16.432;2023-03-05T05:43:07;21.48;;;8.13;;
4021;SDS011;2025;48.260;16.432;2023-03-05T05:45:36;19.15;;;7.88;;
4021;SDS011;2025;48.260;16.432;2023-03-05T05:48:04;22.35;;;10.23;;
4021;SDS011;2025;48.260;16.432;2023-03-05T05:50:31;18.13;;;8.07;;
4021;SDS011;2025;48.260;16.432;2023-03-05T05:52:58;18.33;;;7.78;;
4021;SDS011;2025;48.260;16.432;2023-03-05T05:55:25;19.77;;;8.23;;
4021;SDS011;2025;48.260;16.432;2023-03-05T05:57:52;19.38;;;6.82;;
4021;SDS011;2025;48.260;16.432;2023-03-05T06:00:19;13.38;;;7.03;;
4021;SDS011;2025;48.260;16.432;2023-03-05T06:02:46;14.57;;;6.30;;
4021;SDS011;2025;48.260;16.432;2023-03-05T06:05:15;17.50;;;6.78;;
4021;SDS011;2025;48.260;16.432;2023-03-05T06:07:42;16.23;;;6.43;;
4021;SDS011;2025;48.260;16.432;2023-03-05T06:10:09;16.55;;;6.30;;
4021;SDS011;2025;48.260;16.432;2023-03-05T06:12:36;19.38;;;8.32;;
4021;SDS011;2025;48.260;16.432;2023-03-05T06:15:04;17.55;;;8.55;;
4021;SDS011;2025;48.260;16.432;2023-03-05T06:17:32;15.43;;;7.15;;
4021;SDS011;2025;48.260;16.432;2023-03-05T06:19:59;14.10;;;5.90;;
4021;SDS011;2025;48.260;16.432;2023-03-05T06:22:27;18.63;;;6.35;;
4021;SDS011;2025;48.260;16.432;2023-03-05T06:24:54;15.80;;;5.93;;
4021;SDS011;2025;48.260;16.432;2023-03-05T06:27:21;15.15;;;6.15;;
4021;SDS011;2025;48.260;16.432;2023-03-05T06:29:50;18.40;;;6.20;;
4021;SDS011;2025;48.260;16.432;2023-03-05T06:32:18;15.88;;;7.13;;
4021;SDS011;2025;48.260;16.432;2023-03-05T06:34:45;19.27;;;7.47;;
4021;SDS011;2025;48.260;16.432;2023-03-05T06:37:11;15.88;;;7.07;;
4021;SDS011;2025;48.260;16.432;2023-03-05T06:39:42;14.38;;;5.78;;
4021;SDS011;2025;48.260;16.432;2023-03-05T06:42:09;12.68;;;5.38;;
4021;SDS011;2025;48.260;16.432;2023-03-05T06:44:37;13.98;;;6.07;;
4021;SDS011;2025;48.260;16.432;2023-03-05T06:47:04;17.40;;;6.28;;
4021;SDS011;2025;48.260;16.432;2023-03-05T06:49:31;15.82;;;6.10;;
4021;SDS011;2025;48.260;16.432;2023-03-05T06:51:58;19.88;;;7.35;;
4021;SDS011;2025;48.260;16.432;2023-03-05T06:54:25;16.38;;;6.93;;
4021;SDS011;2025;48.260;16.432;2023-03-05T06:56:54;15.75;;;6.35;;
4021;SDS011;2025;48.260;16.432;2023-03-05T06:59:21;19.33;;;9.13;;
4021;SDS011;2025;48.260;16.432;2023-03-05T07:01:48;20.48;;;8.40;;
4021;SDS011;2025;48.260;16.432;2023-03-05T07:04:15;17.70;;;6.53;;
4021;SDS011;2025;48.260;16.432;2023-03-05T07:06:42;18.23;;;7.35;;
4021;SDS011;2025;48.260;16.432;2023-03-05T07:09:10;16.13;;;6.80;;
4021;SDS011;2025;48.260;16.432;2023-03-05T07:11:39;16.92;;;6.50;;
4021;SDS011;2025;48.260;16.432;2023-03-05T07:14:07;21.90;;;7.88;;
4021;SDS011;2025;48.260;16.432;2023-03-05T07:16:34;19.70;;;8.73;;
4021;SDS011;2025;48.260;16.432;2023-03-05T07:19:02;17.67;;;7.45;;
4021;SDS011;2025;48.260;16.432;2023-03-05T07:21:32;17.35;;;7.85;;
4021;SDS011;2025;48.260;16.432;2023-03-05T07:24:03;18.95;;;7.10;;
4021;SDS011;2025;48.260;16.432;2023-03-05T07:26:30;19.17;;;7.28;;
4021;SDS011;2025;48.260;16.432;2023-03-05T07:28:58;19.33;;;7.70;;
4021;SDS011;2025;48.260;16.432;2023-03-05T07:31:27;19.77;;;7.22;;
4021;SDS011;2025;48.260;16.432;2023-03-05T07:33:56;18.95;;;7.00;;
4021;SDS011;2025;48.260;16.432;2023-03-05T07:36:25;20.23;;;8.73;;
4021;SDS011;2025;48.260;16.432;2023-03-05T07:38:52;18.10;;;6.82;;
4021;SDS011;2025;48.260;16.432;2023-03-05T07:41:19;18.00;;;7.60;;
4021;SDS011;2025;48.260;16.432;2023-03-05T07:43:48;23.25;;;8.68;;
4021;SDS011;2025;48.260;16.432;2023-03-05T07:46:17;22.25;;;8.73;;
4021;SDS011;2025;48.260;16.432;2023-03-05T07:48:46;23.45;;;9.65;;
4021;SDS011;2025;48.260;16.432;2023-03-05T07:51:15;16.60;;;6.70;;
4021;SDS011;2025;48.260;16.432;2023-03-05T07:53:43;18.75;;;7.43;;
4021;SDS011;2025;48.260;16.432;2023-03-05T07:56:11;17.67;;;7.20;;
4021;SDS011;2025;48.260;16.432;2023-03-05T07:58:38;20.88;;;8.73;;
4021;SDS011;2025;48.260;16.432;2023-03-05T08:01:09;23.10;;;8.90;;
4021;SDS011;2025;48.260;16.432;2023-03-05T08:03:38;19.20;;;8.00;;
4021;SDS011;2025;48.260;16.432;2023-03-05T08:06:06;20.42;;;8.02;;
4021;SDS011;2025;48.260;16.432;2023-03-05T08:08:34;23.27;;;8.68;;
4021;SDS011;2025;48.260;16.432;2023-03-05T08:11:02;20.10;;;8.90;;
4021;SDS011;2025;48.260;16.432;2023-03-05T08:13:30;19.38;;;7.50;;
4021;SDS011;2025;48.260;16.432;2023-03-05T08:15:57;20.70;;;7.70;;
4021;SDS011;2025;48.260;16.432;2023-03-05T08:18:24;16.55;;;7.82;;
4021;SDS011;2025;48.260;16.432;2023-03-05T08:20:51;21.33;;;9.23;;
4021;SDS011;2025;48.260;16.432;2023-03-05T08:23:19;20.08;;;8.18;;
4021;SDS011;2025;48.260;16.432;2023-03-05T08:25:46;20.25;;;8.15;;
4021;SDS011;2025;48.260;16.432;2023-03-05T08:28:13;15.52;;;7.70;;
4021;SDS011;2025;48.260;16.432;2023-03-05T08:30:43;17.50;;;7.25;;
4021;SDS011;2025;48.260;16.432;2023-03-05T08:33:11;17.08;;;7.00;;
4021;SDS011;2025;48.260;16.432;2023-03-05T08:35:38;19.85;;;8.55;;
4021;SDS011;2025;48.260;16.432;2023-03-05T08:38:05;19.52;;;8.55;;
4021;SDS011;2025;48.260;16.432;2023-03-05T08:40:34;18.10;;;7.90;;
4021;SDS011;2025;48.260;16.432;2023-03-05T08:43:01;20.45;;;7.57;;
4021;SDS011;2025;48.260;16.432;2023-03-05T08:45:29;17.67;;;7.57;;
4021;SDS011;2025;48.260;16.432;2023-03-05T08:47:56;16.30;;;7.45;;
4021;SDS011;2025;48.260;16.432;2023-03-05T08:50:23;15.75;;;6.13;;
4021;SDS011;2025;48.260;16.432;2023-03-05T08:52:50;17.65;;;6.93;;
4021;SDS011;2025;48.260;16.432;2023-03-05T08:55:17;19.75;;;7.78;;
4021;SDS011;2025;48.260;16.432;2023-03-05T08:57:46;17.05;;;6.78;;
4021;SDS011;2025;48.260;16.432;2023-03-05T09:00:13;18.30;;;6.65;;
4021;SDS011;2025;48.260;16.432;2023-03-05T09:02:40;21.00;;;10.65;;
4021;SDS011;2025;48.260;16.432;2023-03-05T09:05:07;17.88;;;7.45;;
4021;SDS011;2025;48.260;16.432;2023-03-05T09:07:35;18.25;;;7.68;;
4021;SDS011;2025;48.260;16.432;2023-03-05T09:10:02;17.45;;;6.95;;
4021;SDS011;2025;48.260;16.432;2023-03-05T09:12:30;19.83;;;7.93;;
4021;SDS011;2025;48.260;16.432;2023-03-05T09:14:58;19.63;;;7.53;;
4021;SDS011;2025;48.260;16.432;2023-03-05T09:17:25;17.95;;;6.95;;
4021;SDS011;2025;48.260;16.432;2023-03-05T09:19:52;16.30;;;8.25;;
4021;SDS011;2025;48.260;16.432;2023-03-05T09:22:19;13.45;;;6.28;;
4021;SDS011;2025;48.260;16.432;2023-03-05T09:24:46;17.13;;;7.68;;
4021;SDS011;2025;48.260;16.432;2023-03-05T09:27:13;16.70;;;7.40;;
4021;SDS011;2025;48.260;16.432;2023-03-05T09:29:40;17.77;;;6.82;;
4021;SDS011;2025;48.260;16.432;2023-03-05T09:32:08;15.27;;;5.38;;
4021;SDS011;2025;48.260;16.432;2023-03-05T09:34:36;14.65;;;6.13;;
4021;SDS011;2025;48.260;16.432;2023-03-05T09:37:03;15.80;;;6.00;;
4021;SDS011;2025;48.260;16.432;2023-03-05T09:39:30;11.68;;;5.22;;
4021;SDS011;2025;48.260;16.432;2023-03-05T09:42:14;15.50;;;6.90;;
4021;SDS011;2025;48.260;16.432;2023-03-05T09:45:02;16.08;;;6.50;;
4021;SDS011;2025;48.260;16.432;2023-03-05T09:47:47;13.77;;;5.70;;
4021;SDS011;2025;48.260;16.432;2023-03-05T09:50:28;15.15;;;6.22;;
4021;SDS011;2025;48.260;16.432;2023-03-05T09:53:04;13.88;;;6.38;;
4021;SDS011;2025;48.260;16.432;2023-03-05T09:55:41;13.48;;;5.28;;
4021;SDS011;2025;48.260;16.432;2023-03-05T09:58:12;15.18;;;6.22;;
4021;SDS011;2025;48.260;16.432;2023-03-05T10:00:42;16.58;;;5.90;;
4021;SDS011;2025;48.260;16.432;2023-03-05T10:03:13;16.42;;;6.60;;
4021;SDS011;2025;48.260;16.432;2023-03-05T10:05:55;15.98;;;6.68;;
4021;SDS011;2025;48.260;16.432;2023-03-05T10:08:31;15.30;;;5.80;;
4021;SDS011;2025;48.260;16.432;2023-03-05T10:11:07;14.43;;;6.32;;
4021;SDS011;2025;48.260;16.432;2023-03-05T10:13:44;13.57;;;5.55;;
4021;SDS011;2025;48.260;16.432;2023-03-05T10:16:19;13.82;;;6.60;;
4021;SDS011;2025;48.260;16.432;2023-03-05T10:19:04;14.68;;;6.15;;
4021;SDS011;2025;48.260;16.432;2023-03-05T10:21:39;13.48;;;5.50;;
4021;SDS011;2025;48.260;16.432;2023-03-05T10:24:15;16.70;;;7.18;;
4021;SDS011;2025;48.260;16.432;2023-03-05T10:26:56;15.15;;;6.43;;
4021;SDS011;2025;48.260;16.432;2023-03-05T10:29:36;15.95;;;6.22;;
4021;SDS011;2025;48.260;16.432;2023-03-05T10:32:19;13.88;;;5.68;;
4021;SDS011;2025;48.260;16.432;2023-03-05T10:35:00;16.13;;;6.43;;
4021;SDS011;2025;48.260;16.432;2023-03-05T10:37:50;15.30;;;6.03;;
4021;SDS011;2025;48.260;16.432;2023-03-05T10:40:26;17.98;;;6.63;;
4021;SDS011;2025;48.260;16.432;2023-03-05T10:42:58;17.80;;;6.47;;
4021;SDS011;2025;48.260;16.432;2023-03-05T10:45:31;13.02;;;5.03;;
4021;SDS011;2025;48.260;16.432;2023-03-05T10:48:04;14.60;;;6.38;;
4021;SDS011;2025;48.260;16.432;2023-03-05T10:50:39;15.10;;;6.20;;
4021;SDS011;2025;48.260;16.432;2023-03-05T10:53:13;15.90;;;5.68;;
4021;SDS011;2025;48.260;16.432;2023-03-05T10:55:45;16.38;;;6.32;;
4021;SDS011;2025;48.260;16.432;2023-03-05T10:58:12;14.85;;;5.97;;
4021;SDS011;2025;48.260;16.432;2023-03-05T11:00:41;16.23;;;7.35;;
4021;SDS011;2025;48.260;16.432;2023-03-05T11:03:23;15.68;;;7.10;;
4021;SDS011;2025;48.260;16.432;2023-03-05T11:05:57;15.70;;;7.22;;
4021;SDS011;2025;48.260;16.432;2023-03-05T11:08:27;13.80;;;6.55;;
4021;SDS011;2025;48.260;16.432;2023-03-05T11:11:07;14.85;;;5.78;;
4021;SDS011;2025;48.260;16.432;2023-03-05T11:13:40;15.10;;;6.95;;
4021;SDS011;2025;48.260;16.432;2023-03-05T11:16:15;14.07;;;7.10;;
4021;SDS011;2025;48.260;16.432;2023-03-05T11:18:44;11.48;;;4.93;;
4021;SDS011;2025;48.260;16.432;2023-03-05T11:21:17;14.98;;;6.03;;
4021;SDS011;2025;48.260;16.432;2023-03-05T11:24:04;14.05;;;6.03;;
4021;SDS011;2025;48.260;16.432;2023-03-05T11:26:35;16.52;;;7.68;;
4021;SDS011;2025;48.260;16.432;2023-03-05T11:29:02;14.15;;;5.85;;
4021;SDS011;2025;48.260;16.432;2023-03-05T11:31:35;14.52;;;5.72;;
4021;SDS011;2025;48.260;16.432;2023-03-05T11:34:03;15.02;;;6.07;;
4021;SDS011;2025;48.260;16.432;2023-03-05T11:36:34;19.40;;;8.05;;
4021;SDS011;2025;48.260;16.432;2023-03-05T11:39:08;17.67;;;7.20;;
4021;SDS011;2025;48.260;16.432;2023-03-05T11:41:38;20.17;;;7.53;;
4021;SDS011;2025;48.260;16.432;2023-03-05T11:44:09;18.40;;;7.68;;
4021;SDS011;2025;48.260;16.432;2023-03-05T11:46:40;20.65;;;7.75;;
4021;SDS011;2025;48.260;16.432;2023-03-05T11:49:11;17.30;;;6.53;;
4021;SDS011;2025;48.260;16.432;2023-03-05T11:51:44;19.88;;;9.18;;
4021;SDS011;2025;48.260;16.432;2023-03-05T11:54:20;20.95;;;6.93;;
4021;SDS011;2025;48.260;16.432;2023-03-05T11:56:51;19.10;;;7.95;;
4021;SDS011;2025;48.260;16.432;2023-03-05T11:59:21;20.10;;;7.40;;
4021;SDS011;2025;48.260;16.432;2023-03-05T12:01:54;20.13;;;7.32;;
4021;SDS011;2025;48.260;16.432;2023-03-05T12:04:22;16.85;;;6.80;;
4021;SDS011;2025;48.260;16.432;2023-03-05T12:06:52;14.07;;;6.05;;
4021;SDS011;2025;48.260;16.432;2023-03-05T12:09:24;18.80;;;7.13;;
4021;SDS011;2025;48.260;16.432;2023-03-05T12:11:59;16.98;;;6.57;;
4021;SDS011;2025;48.260;16.432;2023-03-05T12:14:34;15.20;;;6.22;;
4021;SDS011;2025;48.260;16.432;2023-03-05T12:17:08;15.50;;;7.88;;
4021;SDS011;2025;48.260;16.432;2023-03-05T12:19:40;17.13;;;5.90;;
4021;SDS011;2025;48.260;16.432;2023-03-05T12:22:18;19.75;;;7.25;;
4021;SDS011;2025;48.260;16.432;2023-03-05T12:24:48;15.70;;;6.10;;
4021;SDS011;2025;48.260;16.432;2023-03-05T12:27:16;14.10;;;5.55;;
4021;SDS011;2025;48.260;16.432;2023-03-05T12:29:59;10.63;;;3.85;;
4021;SDS011;2025;48.260;16.432;2023-03-05T12:35:34;11.95;;;4.03;;
4021;SDS011;2025;48.260;16.432;2023-03-05T12:44:13;9.85;;;2.88;;
4021;SDS011;2025;48.260;16.432;2023-03-05T12:46:44;6.80;;;3.13;;
4021;SDS011;2025;48.260;16.432;2023-03-05T12:49:28;7.57;;;2.65;;
4021;SDS011;2025;48.260;16.432;2023-03-05T12:52:00;10.15;;;3.42;;
4021;SDS011;2025;48.260;16.432;2023-03-05T12:54:32;10.13;;;2.78;;
4021;SDS011;2025;48.260;16.432;2023-03-05T12:57:00;7.93;;;2.22;;
4021;SDS011;2025;48.260;16.432;2023-03-05T12:59:38;6.40;;;2.85;;
4021;SDS011;2025;48.260;16.432;2023-03-05T13:02:20;6.32;;;1.65;;
4021;SDS011;2025;48.260;16.432;2023-03-05T13:04:52;6.57;;;2.10;;
4021;SDS011;2025;48.260;16.432;2023-03-05T13:07:23;6.13;;;1.90;;
4021;SDS011;2025;48.260;16.432;2023-03-05T13:09:52;9.40;;;2.72;;
4021;SDS011;2025;48.260;16.432;2023-03-05T13:12:21;8.13;;;1.88;;
4021;SDS011;2025;48.260;16.432;2023-03-05T13:14:54;8.10;;;2.28;;
4021;SDS011;2025;48.260;16.432;2023-03-05T13:17:28;5.03;;;1.17;;
4021;SDS011;2025;48.260;16.432;2023-03-05T13:23:02;5.63;;;1.20;;
4021;SDS011;2025;48.260;16.432;2023-03-05T13:25:54;5.82;;;1.88;;
4021;SDS011;2025;48.260;16.432;2023-03-05T13:28:23;5.75;;;1.13;;
4021;SDS011;2025;48.260;16.432;2023-03-05T13:30:50;6.07;;;3.13;;
4021;SDS011;2025;48.260;16.432;2023-03-05T13:33:19;6.28;;;1.27;;
4021;SDS011;2025;48.260;16.432;2023-03-05T13:35:50;4.95;;;2.38;;
4021;SDS011;2025;48.260;16.432;2023-03-05T13:38:21;6.30;;;1.90;;
4021;SDS011;2025;48.260;16.432;2023-03-05T13:43:29;7.05;;;2.17;;
4021;SDS011;2025;48.260;16.432;2023-03-05T13:45:56;5.22;;;1.20;;
4021;SDS011;2025;48.260;16.432;2023-03-05T13:48:24;4.60;;;1.38;;
4021;SDS011;2025;48.260;16.432;2023-03-05T13:50:53;5.55;;;1.52;;
4021;SDS011;2025;48.260;16.432;2023-03-05T13:53:22;5.25;;;1.63;;
4021;SDS011;2025;48.260;16.432;2023-03-05T13:55:50;5.05;;;1.23;;
4021;SDS011;2025;48.260;16.432;2023-03-05T14:01:21;8.43;;;1.73;;
4021;SDS011;2025;48.260;16.432;2023-03-05T14:03:52;4.38;;;1.13;;
4021;SDS011;2025;48.260;16.432;2023-03-05T14:06:21;5.43;;;1.67;;
4021;SDS011;2025;48.260;16.432;2023-03-05T14:08:53;4.85;;;1.58;;
4021;SDS011;2025;48.260;16.432;2023-03-05T14:11:29;6.72;;;1.75;;
4021;SDS011;2025;48.260;16.432;2023-03-05T14:14:01;5.10;;;1.08;;
4021;SDS011;2025;48.260;16.432;2023-03-05T14:16:33;3.25;;;0.75;;
4021;SDS011;2025;48.260;16.432;2023-03-05T14:19:01;4.30;;;1.45;;
4021;SDS011;2025;48.260;16.432;2023-03-05T14:21:44;5.47;;;1.17;;
4021;SDS011;2025;48.260;16.432;2023-03-05T14:24:13;6.50;;;2.35;;
4021;SDS011;2025;48.260;16.432;2023-03-05T14:26:47;7.50;;;1.73;;
4021;SDS011;2025;48.260;16.432;2023-03-05T14:29:20;4.75;;;1.27;;
4021;SDS011;2025;48.260;16.432;2023-03-05T14:31:50;6.18;;;1.58;;
4021;SDS011;2025;48.260;16.432;2023-03-05T14:34:23;6.63;;;2.05;;
4021;SDS011;2025;48.260;16.432;2023-03-05T14:36:53;5.88;;;1.30;;
4021;SDS011;2025;48.260;16.432;2023-03-05T14:39:26;3.50;;;1.35;;
4021;SDS011;2025;48.260;16.432;2023-03-05T14:41:55;4.78;;;1.67;;
4021;SDS011;2025;48.260;16.432;2023-03-05T14:44:51;5.65;;;2.33;;
4021;SDS011;2025;48.260;16.432;2023-03-05T14:47:19;5.28;;;1.73;;
4021;SDS011;2025;48.260;16.432;2023-03-05T14:49:46;5.68;;;0.90;;
4021;SDS011;2025;48.260;16.432;2023-03-05T14:52:14;3.38;;;0.95;;
4021;SDS011;2025;48.260;16.432;2023-03-05T14:54:43;5.85;;;1.30;;
4021;SDS011;2025;48.260;16.432;2023-03-05T14:57:12;6.60;;;1.98;;
4021;SDS011;2025;48.260;16.432;2023-03-05T14:59:42;6.05;;;1.08;;
4021;SDS011;2025;48.260;16.432;2023-03-05T15:02:13;6.18;;;2.38;;
4021;SDS011;2025;48.260;16.432;2023-03-05T15:04:41;6.47;;;1.73;;
4021;SDS011;2025;48.260;16.432;2023-03-05T15:07:12;4.30;;;1.35;;
4021;SDS011;2025;48.260;16.432;2023-03-05T15:09:45;5.20;;;1.35;;
4021;SDS011;2025;48.260;16.432;2023-03-05T15:12:13;5.70;;;1.80;;
4021;SDS011;2025;48.260;16.432;2023-03-05T15:14:41;4.60;;;1.33;;
4021;SDS011;2025;48.260;16.432;2023-03-05T15:17:11;4.68;;;1.48;;
4021;SDS011;2025;48.260;16.432;2023-03-05T15:19:45;5.07;;;2.22;;
4021;SDS011;2025;48.260;16.432;2023-03-05T15:22:12;6.32;;;1.80;;
4021;SDS011;2025;48.260;16.432;2023-03-05T15:24:40;4.35;;;1.30;;
4021;SDS011;2025;48.260;16.432;2023-03-05T15:27:07;6.40;;;1.33;;